Time;durP1;ratioP1;P1;durP2;ratioP2;P2;SDS_P1;SDS_P2;PMS_P1;PMS_P2;Temp;Humidity;BMP_temperature;BMP_pressure;BME280_temperature;BME280_humidity;BME280_pressure;Samples;Min_cycle;Max_cycle;Signal;HPM_P1;HPM_P2
2024/01/16 00:00:57;;;;;;;0.20;0.20;;;2.90;99.90;;;;;;5055887;28;20057;-77
2024/01/16 00:03:23;;;;;;;0.65;0.20;;;3.00;99.90;;;;;;5055273;28;20507;-77
2024/01/16 00:05:49;;;;;;;1.58;0.25;;;3.20;99.90;;;;;;5038073;28;20108;-78
2024/01/16 00:08:14;;;;;;;0.00;0.00;;;3.00;99.90;;;;;;5055590;28;20033;-77
2024/01/16 00:10:41;;;;;;;3.35;0.28;;;2.90;99.90;;;;;;5054477;28;20481;-77
2024/01/16 00:13:07;;;;;;;1.20;0.85;;;2.90;99.90;;;;;;5055833;28;20116;-77
2024/01/16 00:15:33;;;;;;;0.45;0.45;;;3.00;99.90;;;;;;5041368;28;20017;-76
2024/01/16 00:17:58;;;;;;;2.55;1.00;;;2.90;99.90;;;;;;5055253;28;20120;-75
2024/01/16 00:20:25;;;;;;;0.70;0.70;;;2.90;99.90;;;;;;5055170;28;20025;-74
2024/01/16 00:22:51;;;;;;;3.15;1.02;;;2.80;99.90;;;;;;5055225;28;20074;-75
2024/01/16 00:25:19;;;;;;;0.70;0.65;;;2.80;99.90;;;;;;5055294;28;20032;-74
2024/01/16 00:27:46;;;;;;;3.25;1.25;;;2.80;99.90;;;;;;5055370;28;20056;-74
2024/01/16 00:30:12;;;;;;;3.30;1.33;;;2.80;99.90;;;;;;5055285;28;20501;-74
2024/01/16 00:32:39;;;;;;;2.83;0.93;;;2.80;99.90;;;;;;5054685;28;20056;-75
2024/01/16 00:35:05;;;;;;;0.20;0.20;;;2.70;99.90;;;;;;5055086;28;20029;-74
2024/01/16 00:37:31;;;;;;;6.20;1.27;;;2.70;99.90;;;;;;5055055;28;20039;-74
2024/01/16 00:39:57;;;;;;;0.20;0.20;;;2.80;99.90;;;;;;5055144;28;20071;-74
2024/01/16 00:42:22;;;;;;;0.00;0.00;;;2.80;99.90;;;;;;5054961;28;20059;-76
2024/01/16 00:44:48;;;;;;;2.10;1.08;;;2.90;99.90;;;;;;5054693;28;20028;-74
2024/01/16 00:47:14;;;;;;;0.45;0.45;;;2.80;99.90;;;;;;5053426;28;20033;-75
2024/01/16 00:49:40;;;;;;;2.53;2.10;;;2.80;99.90;;;;;;5053401;28;20053;-75
2024/01/16 00:52:06;;;;;;;8.18;1.30;;;2.90;99.90;;;;;;5054735;28;20040;-76
2024/01/16 00:54:32;;;;;;;3.72;1.98;;;2.80;99.90;;;;;;5053360;28;20061;-75
2024/01/16 00:56:59;;;;;;;0.28;0.28;;;2.70;99.90;;;;;;5053617;28;20524;-74
2024/01/16 00:59:26;;;;;;;7.03;1.75;;;2.70;99.90;;;;;;5053248;28;20068;-76
2024/01/16 01:01:52;;;;;;;1.52;0.90;;;2.60;99.90;;;;;;5054053;28;20055;-75
2024/01/16 01:04:18;;;;;;;0.00;0.00;;;2.60;99.90;;;;;;5054748;28;20032;-74
2024/01/16 01:06:43;;;;;;;1.65;1.20;;;2.50;99.90;;;;;;5054378;28;20033;-74
2024/01/16 01:09:11;;;;;;;0.70;0.63;;;2.40;99.90;;;;;;5054521;28;20029;-75
2024/01/16 01:11:38;;;;;;;0.70;0.70;;;2.40;99.90;;;;;;5054329;28;20116;-74
2024/01/16 01:14:04;;;;;;;7.18;2.90;;;2.40;99.90;;;;;;5054327;28;20447;-78
2024/01/16 01:16:31;;;;;;;0.47;0.47;;;2.40;99.90;;;;;;5036143;28;20119;-78
2024/01/16 01:18:56;;;;;;;0.25;0.25;;;2.50;99.90;;;;;;5054488;28;20492;-77
2024/01/16 01:21:22;;;;;;;0.93;0.60;;;2.40;99.90;;;;;;5053075;28;20025;-78
2024/01/16 01:23:48;;;;;;;1.75;0.70;;;2.30;99.90;;;;;;5019792;28;20117;-77
2024/01/16 01:26:14;;;;;;;4.38;3.00;;;2.30;99.90;;;;;;5054287;28;20118;-78
2024/01/16 01:28:41;;;;;;;4.80;2.13;;;2.50;99.90;;;;;;5036188;28;20061;-77
2024/01/16 01:31:13;;;;;;;0.10;0.10;;;2.40;99.90;;;;;;5035944;28;20033;-78
2024/01/16 01:33:42;;;;;;;0.05;0.05;;;2.50;99.90;;;;;;5054120;28;20511;-78
2024/01/16 01:36:08;;;;;;;3.20;1.08;;;2.40;99.90;;;;;;5052711;28;20159;-78
2024/01/16 01:38:34;;;;;;;10.93;1.27;;;2.40;99.90;;;;;;5054085;28;20489;-78
2024/01/16 01:40:59;;;;;;;1.85;0.85;;;2.50;99.90;;;;;;5053673;28;20033;-78
2024/01/16 01:43:26;;;;;;;0.10;0.10;;;2.40;99.90;;;;;;5054049;28;20381;-78
2024/01/16 01:45:57;;;;;;;0.68;0.68;;;2.40;99.90;;;;;;5053721;28;20064;-78
2024/01/16 01:48:23;;;;;;;0.65;0.65;;;2.50;99.90;;;;;;5040246;28;20024;-78
2024/01/16 01:50:49;;;;;;;0.95;0.57;;;2.30;99.90;;;;;;5053708;28;20110;-78
2024/01/16 01:53:15;;;;;;;0.10;0.10;;;2.10;99.90;;;;;;5053792;28;20052;-77
2024/01/16 01:55:41;;;;;;;1.08;0.98;;;2.20;99.90;;;;;;5053545;28;20029;-77
2024/01/16 01:58:07;;;;;;;0.00;0.00;;;2.10;99.90;;;;;;5053573;28;20029;-77
2024/01/16 02:00:34;;;;;;;1.58;0.77;;;2.10;99.90;;;;;;5035642;28;20048;-77
2024/01/16 02:03:00;;;;;;;13.35;1.13;;;2.00;99.90;;;;;;5051903;28;20110;-77
2024/01/16 02:05:27;;;;;;;2.50;1.25;;;1.90;99.90;;;;;;5053610;28;20032;-76
2024/01/16 02:07:53;;;;;;;3.78;3.40;;;1.80;99.90;;;;;;5053412;28;20067;-76
2024/01/16 02:10:19;;;;;;;0.20;0.20;;;2.00;99.90;;;;;;5053508;28;20028;-76
2024/01/16 02:12:45;;;;;;;1.25;0.45;;;1.90;99.90;;;;;;5034794;28;20044;-76
2024/01/16 02:15:10;;;;;;;3.20;1.55;;;1.80;99.90;;;;;;5052763;28;20401;-76
2024/01/16 02:17:36;;;;;;;0.40;0.40;;;1.80;99.90;;;;;;5053275;28;20032;-75
2024/01/16 02:20:03;;;;;;;0.08;0.08;;;1.90;99.90;;;;;;5051953;28;20075;-78
2024/01/16 02:22:32;;;;;;;0.05;0.05;;;2.00;99.90;;;;;;5035217;28;20027;-76
2024/01/16 02:24:58;;;;;;;0.95;0.90;;;2.00;99.90;;;;;;5035247;28;20033;-78
2024/01/16 02:27:23;;;;;;;0.25;0.25;;;1.80;99.90;;;;;;5052447;28;20025;-74
2024/01/16 02:29:49;;;;;;;3.90;1.10;;;1.70;99.90;;;;;;5051928;28;20033;-74
2024/01/16 02:32:16;;;;;;;5.45;2.92;;;1.70;99.90;;;;;;5052937;28;20041;-74
2024/01/16 02:34:42;;;;;;;0.22;0.22;;;1.70;99.90;;;;;;5051690;28;20478;-73
2024/01/16 02:37:08;;;;;;;2.70;0.90;;;1.80;99.90;;;;;;5051667;28;20040;-75
2024/01/16 02:39:34;;;;;;;0.45;0.45;;;1.70;99.90;;;;;;5052748;28;20094;-73
2024/01/16 02:42:00;;;;;;;6.40;1.15;;;1.60;99.90;;;;;;5052458;28;20497;-73
2024/01/16 02:44:26;;;;;;;0.10;0.10;;;1.50;99.90;;;;;;5052692;28;20052;-76
2024/01/16 02:46:52;;;;;;;0.30;0.30;;;1.50;99.90;;;;;;5051481;28;20091;-77
2024/01/16 02:49:18;;;;;;;5.22;0.80;;;1.50;99.90;;;;;;5052860;28;20052;-77
2024/01/16 02:51:43;;;;;;;2.33;1.02;;;1.60;99.90;;;;;;5052699;28;20040;-76
2024/01/16 02:54:09;;;;;;;3.17;1.27;;;1.60;99.90;;;;;;5051065;28;20032;-76
2024/01/16 02:56:35;;;;;;;1.20;0.55;;;1.60;99.90;;;;;;5034268;28;20025;-77
2024/01/16 02:59:01;;;;;;;5.10;1.45;;;1.50;99.90;;;;;;5052284;28;20027;-76
2024/01/16 03:01:27;;;;;;;0.57;0.47;;;1.30;99.90;;;;;;5052503;28;20378;-77
2024/01/16 03:03:53;;;;;;;1.55;0.85;;;1.20;99.90;;;;;;5052497;28;20036;-76
2024/01/16 03:06:23;;;;;;;0.00;0.00;;;1.30;99.90;;;;;;5034827;28;20013;-77
2024/01/16 03:08:50;;;;;;;0.10;0.10;;;1.20;99.90;;;;;;5052533;28;20350;-76
2024/01/16 03:11:15;;;;;;;0.98;0.75;;;1.30;99.90;;;;;;5052034;28;20032;-76
2024/01/16 03:13:41;;;;;;;0.50;0.43;;;1.40;99.90;;;;;;5052368;28;20029;-78
2024/01/16 03:16:07;;;;;;;0.30;0.30;;;1.40;99.90;;;;;;5034454;28;20039;-77
2024/01/16 03:18:33;;;;;;;0.10;0.10;;;1.40;99.90;;;;;;5052428;28;20108;-77
2024/01/16 03:20:59;;;;;;;0.32;0.32;;;1.40;99.90;;;;;;5052460;28;20056;-78
2024/01/16 03:23:25;;;;;;;0.20;0.20;;;1.40;99.90;;;;;;5054175;28;20076;-76
2024/01/16 03:25:51;;;;;;;0.40;0.40;;;1.50;99.90;;;;;;5056170;28;20473;-77
2024/01/16 03:28:17;;;;;;;2.90;0.68;;;1.20;99.90;;;;;;5038611;28;20428;-77
2024/01/16 03:30:43;;;;;;;0.13;0.13;;;1.40;99.90;;;;;;5038543;28;20025;-78
2024/01/16 03:33:09;;;;;;;1.05;0.95;;;1.30;99.90;;;;;;5056088;28;20036;-78
2024/01/16 03:35:34;;;;;;;0.88;0.57;;;1.30;99.90;;;;;;5056421;28;20481;-78
2024/01/16 03:38:01;;;;;;;2.58;1.25;;;1.30;99.90;;;;;;5051629;28;20036;-76
2024/01/16 03:40:27;;;;;;;0.40;0.40;;;1.20;99.90;;;;;;5055429;28;20028;-78
2024/01/16 03:42:53;;;;;;;0.82;0.82;;;1.20;99.90;;;;;;5055741;28;20025;-79
2024/01/16 03:45:18;;;;;;;4.90;1.40;;;1.20;99.90;;;;;;5054536;28;20060;-78
2024/01/16 03:47:44;;;;;;;0.55;0.55;;;1.20;99.90;;;;;;5038233;28;20029;-77
2024/01/16 03:50:10;;;;;;;0.57;0.57;;;1.20;99.90;;;;;;5037844;28;20025;-77
2024/01/16 03:52:36;;;;;;;0.30;0.30;;;1.10;99.90;;;;;;5055920;28;20094;-78
2024/01/16 03:55:03;;;;;;;2.60;1.35;;;1.10;99.90;;;;;;5054039;28;20044;-77
2024/01/16 03:57:29;;;;;;;0.38;0.38;;;1.20;99.90;;;;;;5055456;28;20025;-78
2024/01/16 03:59:55;;;;;;;1.52;0.43;;;1.20;99.90;;;;;;5055656;28;20021;-76
2024/01/16 04:02:21;;;;;;;0.75;0.52;;;1.20;99.90;;;;;;5055378;28;20075;-77
2024/01/16 04:04:47;;;;;;;0.68;0.68;;;1.20;99.90;;;;;;5055648;28;20120;-78
2024/01/16 04:07:12;;;;;;;4.07;2.47;;;1.10;99.90;;;;;;5055390;28;20037;-78
2024/01/16 04:09:38;;;;;;;0.10;0.10;;;1.10;99.90;;;;;;5037400;28;20032;-79
2024/01/16 04:12:05;;;;;;;41.50;1.33;;;1.10;99.90;;;;;;5055590;28;20546;-79
2024/01/16 04:14:31;;;;;;;0.95;0.45;;;1.10;99.90;;;;;;5020660;28;20032;-79
2024/01/16 04:16:56;;;;;;;1.85;1.35;;;1.10;99.90;;;;;;5055377;28;20102;-76
2024/01/16 04:19:22;;;;;;;0.20;0.20;;;1.10;99.90;;;;;;5037660;28;20028;-79
2024/01/16 04:21:48;;;;;;;0.03;0.03;;;1.10;99.90;;;;;;5055410;28;20032;-77
2024/01/16 04:24:14;;;;;;;1.08;0.98;;;1.10;99.90;;;;;;5054821;28;20420;-77
2024/01/16 04:26:40;;;;;;;0.10;0.10;;;1.20;99.90;;;;;;5055383;28;20474;-80
2024/01/16 04:29:05;;;;;;;0.57;0.57;;;1.00;99.90;;;;;;5054978;28;20033;-77
2024/01/16 04:31:33;;;;;;;10.05;1.80;;;1.20;99.90;;;;;;5055186;28;20565;-78
2024/01/16 04:33:58;;;;;;;0.80;0.73;;;1.00;99.90;;;;;;5037253;28;20044;-80
2024/01/16 04:36:25;;;;;;;1.55;0.50;;;1.10;99.90;;;;;;5054811;28;20462;-77
2024/01/16 04:38:50;;;;;;;0.28;0.28;;;1.00;99.90;;;;;;5037298;28;20075;-78
2024/01/16 04:41:19;;;;;;;2.60;1.27;;;0.80;99.90;;;;;;5036960;28;20389;-79
2024/01/16 04:43:45;;;;;;;0.40;0.40;;;0.80;99.90;;;;;;5037368;28;20029;-75
2024/01/16 04:46:13;;;;;;;1.27;0.55;;;0.90;99.90;;;;;;5055052;28;20032;-79
2024/01/16 04:48:39;;;;;;;2.92;0.55;;;1.00;99.90;;;;;;5054963;28;20028;-79
2024/01/16 04:51:05;;;;;;;0.10;0.10;;;1.10;99.90;;;;;;5053486;28;20120;-78
2024/01/16 04:53:31;;;;;;;2.70;1.27;;;1.20;99.90;;;;;;5054357;28;20021;-79
2024/01/16 04:55:56;;;;;;;4.30;1.13;;;1.10;99.90;;;;;;5054913;28;20493;-79
2024/01/16 04:58:22;;;;;;;0.32;0.32;;;0.90;99.90;;;;;;5054749;28;20051;-79
2024/01/16 05:00:49;;;;;;;0.10;0.10;;;0.90;99.90;;;;;;5054593;28;20028;-80
2024/01/16 05:03:15;;;;;;;2.92;1.67;;;0.80;99.90;;;;;;5054467;28;20024;-79
2024/01/16 05:05:41;;;;;;;0.10;0.10;;;0.80;99.90;;;;;;5054116;28;20040;-79
2024/01/16 05:08:07;;;;;;;0.30;0.30;;;0.70;99.90;;;;;;5054325;28;20029;-78
2024/01/16 05:10:32;;;;;;;0.13;0.13;;;0.70;99.90;;;;;;5054435;28;20032;-78
2024/01/16 05:12:58;;;;;;;1.17;0.60;;;0.70;99.90;;;;;;5054333;28;20497;-79
2024/01/16 05:15:24;;;;;;;3.10;1.27;;;0.80;99.90;;;;;;5054253;28;20021;-78
2024/01/16 05:17:50;;;;;;;0.30;0.30;;;0.80;99.90;;;;;;5036595;28;20489;-78
2024/01/16 05:20:16;;;;;;;0.40;0.38;;;0.90;99.90;;;;;;5054014;28;20483;-80
2024/01/16 05:22:42;;;;;;;0.68;0.68;;;0.70;99.90;;;;;;5054048;28;20496;-80
2024/01/16 05:25:10;;;;;;;0.40;0.40;;;0.80;99.90;;;;;;5054260;28;20078;-79
2024/01/16 05:27:36;;;;;;;6.28;2.33;;;0.90;99.90;;;;;;5036579;28;20033;-79
2024/01/16 05:30:02;;;;;;;0.35;0.20;;;0.60;99.90;;;;;;5054201;28;20477;-79
2024/01/16 05:32:27;;;;;;;0.38;0.38;;;0.60;99.90;;;;;;5036059;28;20485;-79
2024/01/16 05:34:53;;;;;;;1.00;0.95;;;0.50;99.90;;;;;;5053940;28;20031;-80
2024/01/16 05:37:19;;;;;;;1.13;0.40;;;0.60;99.90;;;;;;5053669;28;20067;-79
2024/01/16 05:39:45;;;;;;;0.55;0.55;;;0.70;99.90;;;;;;5036046;28;20040;-80
2024/01/16 05:42:12;;;;;;;0.28;0.28;;;0.80;99.90;;;;;;5053525;28;20029;-79
2024/01/16 05:44:38;;;;;;;2.10;1.05;;;0.80;99.90;;;;;;5053740;28;20017;-80
2024/01/16 05:47:04;;;;;;;3.83;0.70;;;0.70;99.90;;;;;;5052934;28;20112;-79
2024/01/16 05:49:30;;;;;;;0.20;0.20;;;0.60;99.90;;;;;;5053704;28;20108;-80
2024/01/16 05:51:56;;;;;;;0.32;0.28;;;0.70;99.90;;;;;;5053235;28;20508;-79
2024/01/16 05:54:22;;;;;;;0.82;0.73;;;0.70;99.90;;;;;;5053657;28;20025;-79
2024/01/16 05:56:47;;;;;;;0.43;0.43;;;0.70;99.90;;;;;;5053513;28;20017;-79
2024/01/16 05:59:13;;;;;;;0.28;0.28;;;0.70;99.90;;;;;;5052419;28;20115;-79
2024/01/16 06:01:39;;;;;;;2.08;1.58;;;0.60;99.90;;;;;;5053171;28;20040;-79
2024/01/16 06:04:05;;;;;;;0.77;0.57;;;0.60;99.90;;;;;;5053232;28;20024;-80
2024/01/16 06:06:30;;;;;;;0.43;0.43;;;0.50;99.90;;;;;;5050688;28;20382;-79
2024/01/16 06:09:05;;;;;;;0.43;0.43;;;0.40;99.90;;;;;;5131444;27;20507;-68
2024/01/16 06:11:32;;;;;;;0.77;0.60;;;0.40;99.90;;;;;;5131273;27;20037;-69
2024/01/16 06:13:59;;;;;;;1.88;1.30;;;0.50;99.90;;;;;;5116935;27;20106;-67
2024/01/16 06:16:25;;;;;;;2.17;0.90;;;0.50;99.90;;;;;;5131351;27;20164;-67
2024/01/16 06:18:51;;;;;;;6.38;2.05;;;0.50;99.90;;;;;;5129965;28;20527;-66
2024/01/16 06:21:17;;;;;;;2.42;1.45;;;0.60;99.90;;;;;;5125889;27;20522;-66
2024/01/16 06:23:44;;;;;;;1.98;1.27;;;0.60;99.90;;;;;;5121982;28;20043;-67
2024/01/16 06:26:10;;;;;;;1.48;0.45;;;0.60;99.90;;;;;;5131139;27;20023;-67
2024/01/16 06:28:36;;;;;;;0.10;0.10;;;0.50;99.90;;;;;;5130724;28;20449;-66
2024/01/16 06:31:02;;;;;;;0.32;0.32;;;0.60;99.90;;;;;;5116328;27;20035;-67
2024/01/16 06:33:30;;;;;;;10.43;3.25;;;0.50;99.90;;;;;;5130803;27;20020;-68
2024/01/16 06:35:56;;;;;;;9.93;1.27;;;0.50;99.90;;;;;;5130721;27;20548;-67
2024/01/16 06:38:21;;;;;;;6.60;1.40;;;0.50;99.90;;;;;;5129301;28;20028;-66
2024/01/16 06:40:47;;;;;;;0.30;0.30;;;0.50;99.90;;;;;;5130897;27;20050;-67
2024/01/16 06:43:15;;;;;;;0.45;0.45;;;0.50;99.90;;;;;;5130470;27;20024;-69
2024/01/16 06:45:44;;;;;;;0.90;0.90;;;0.50;99.90;;;;;;5130636;27;20027;-67
2024/01/16 06:48:10;;;;;;;0.65;0.57;;;0.50;99.90;;;;;;5130102;27;20536;-67
2024/01/16 06:50:36;;;;;;;0.13;0.13;;;0.60;99.90;;;;;;5130478;27;20026;-66
2024/01/16 06:53:02;;;;;;;4.57;1.67;;;0.70;99.90;;;;;;5130262;27;20027;-68
2024/01/16 06:55:28;;;;;;;1.20;0.60;;;0.70;99.90;;;;;;5130268;27;20515;-67
2024/01/16 06:57:54;;;;;;;0.45;0.40;;;0.80;99.90;;;;;;5108260;22;20124;-68
2024/01/16 07:00:21;;;;;;;1.08;0.85;;;0.70;99.90;;;;;;5049177;28;20397;-67
2024/01/16 07:02:47;;;;;;;0.10;0.10;;;0.60;99.90;;;;;;5049517;28;20029;-67
2024/01/16 07:05:12;;;;;;;2.70;2.25;;;0.80;99.90;;;;;;5049049;28;20033;-67
2024/01/16 07:07:38;;;;;;;0.20;0.20;;;0.80;99.90;;;;;;5043028;28;20034;-67
2024/01/16 07:10:08;;;;;;;1.27;1.27;;;0.90;99.90;;;;;;5028152;28;20018;-66
2024/01/16 07:12:35;;;;;;;0.77;0.50;;;0.90;99.90;;;;;;5028965;28;20033;-67
2024/01/16 07:15:01;;;;;;;0.75;0.60;;;0.80;99.90;;;;;;5029188;28;20034;-66
2024/01/16 07:17:26;;;;;;;1.17;0.45;;;0.70;99.90;;;;;;5028567;28;20021;-67
2024/01/16 07:19:52;;;;;;;2.17;1.00;;;0.70;99.90;;;;;;5019035;28;20486;-66
2024/01/16 07:22:18;;;;;;;1.00;0.50;;;0.70;99.90;;;;;;4998456;28;20030;-70
2024/01/16 07:24:44;;;;;;;0.10;0.10;;;0.70;99.90;;;;;;5015441;28;20036;-67
2024/01/16 07:27:10;;;;;;;0.50;0.50;;;0.80;99.90;;;;;;5015794;28;20441;-68
2024/01/16 07:29:35;;;;;;;0.22;0.22;;;0.80;99.90;;;;;;5015528;28;20423;-68
2024/01/16 07:32:01;;;;;;;4.88;1.40;;;0.70;99.90;;;;;;5015478;28;20030;-67
2024/01/16 07:34:27;;;;;;;15.90;1.48;;;0.60;99.90;;;;;;5015485;28;20075;-66
2024/01/16 07:36:55;;;;;;;0.55;0.35;;;0.70;99.90;;;;;;5015717;28;20029;-66
2024/01/16 07:39:22;;;;;;;12.85;2.70;;;1.00;99.90;;;;;;5015442;28;20083;-67
2024/01/16 07:41:48;;;;;;;3.05;1.00;;;0.80;99.90;;;;;;5015279;28;20029;-68
2024/01/16 07:44:14;;;;;;;0.10;0.10;;;0.80;99.90;;;;;;5015171;28;20386;-69
2024/01/16 07:46:40;;;;;;;0.22;0.22;;;0.80;99.90;;;;;;5014856;28;20034;-67
2024/01/16 07:49:06;;;;;;;0.20;0.20;;;0.70;99.90;;;;;;5014993;28;20388;-68
2024/01/16 07:51:31;;;;;;;1.52;1.42;;;0.90;99.90;;;;;;5014179;28;20024;-68
2024/01/16 07:54:08;;;;;;;0.93;0.88;;;0.90;99.90;;;;;;5021396;28;20087;-69
2024/01/16 07:56:35;;;;;;;0.10;0.10;;;0.90;99.90;;;;;;5018566;28;20037;-67
2024/01/16 07:59:02;;;;;;;1.55;0.50;;;0.90;99.90;;;;;;5020851;28;20029;-68
2024/01/16 08:01:28;;;;;;;0.80;0.80;;;0.90;99.90;;;;;;5030475;28;20041;-67
2024/01/16 08:03:55;;;;;;;0.85;0.85;;;0.80;99.90;;;;;;5026434;28;20079;-67
2024/01/16 08:06:21;;;;;;;1.00;0.90;;;0.90;99.90;;;;;;5023817;28;20045;-67
2024/01/16 08:08:48;;;;;;;2.00;0.65;;;1.00;99.90;;;;;;5024795;28;20076;-69
2024/01/16 08:11:14;;;;;;;5.82;0.95;;;0.90;99.90;;;;;;5005364;28;20056;-66
2024/01/16 08:13:40;;;;;;;5.35;1.20;;;0.90;99.90;;;;;;5025828;28;20132;-68
2024/01/16 08:16:07;;;;;;;0.20;0.20;;;0.90;99.90;;;;;;5027120;28;20028;-68
2024/01/16 08:18:33;;;;;;;2.05;1.02;;;0.80;99.90;;;;;;5025370;28;20034;-67
2024/01/16 08:20:58;;;;;;;0.20;0.20;;;0.80;99.90;;;;;;5021380;28;20026;-67
2024/01/16 08:23:24;;;;;;;0.30;0.30;;;0.90;99.90;;;;;;5015374;28;20494;-67
2024/01/16 08:25:51;;;;;;;0.75;0.65;;;0.80;99.90;;;;;;5026858;28;20037;-68
2024/01/16 08:28:17;;;;;;;1.17;1.08;;;0.90;99.90;;;;;;5015171;28;20034;-68
2024/01/16 08:30:43;;;;;;;2.03;1.25;;;0.90;99.90;;;;;;5024174;28;20035;-69
2024/01/16 08:33:11;;;;;;;0.30;0.30;;;0.80;99.90;;;;;;5017942;28;20130;-67
2024/01/16 08:35:37;;;;;;;0.20;0.20;;;1.00;99.90;;;;;;5014521;28;20069;-67
2024/01/16 08:38:04;;;;;;;1.55;0.98;;;1.00;99.90;;;;;;5025849;28;20061;-67
2024/01/16 08:40:30;;;;;;;0.60;0.60;;;0.90;99.90;;;;;;5025689;28;20072;-68
2024/01/16 08:42:56;;;;;;;4.40;2.05;;;0.90;99.90;;;;;;5023243;28;20060;-69
2024/01/16 08:45:23;;;;;;;0.28;0.28;;;0.90;99.90;;;;;;5015268;28;20030;-68
2024/01/16 08:47:49;;;;;;;1.25;1.15;;;0.90;99.90;;;;;;5026582;28;20556;-67
2024/01/16 08:50:15;;;;;;;0.80;0.80;;;0.90;99.90;;;;;;5025787;28;20022;-68
2024/01/16 08:52:41;;;;;;;2.17;1.00;;;0.90;99.90;;;;;;5021062;28;20036;-68
2024/01/16 08:55:11;;;;;;;12.25;9.15;;;1.00;99.90;;;;;;5020224;28;20022;-68
2024/01/16 08:57:37;;;;;;;4.53;1.45;;;1.10;99.90;;;;;;5022914;28;20030;-68
2024/01/16 09:00:05;;;;;;;0.20;0.20;;;1.10;99.90;;;;;;5026198;28;20026;-69
2024/01/16 09:02:30;;;;;;;0.35;0.35;;;1.20;99.90;;;;;;5025974;28;20105;-69
2024/01/16 09:04:58;;;;;;;1.75;0.75;;;1.30;99.90;;;;;;5028352;28;20105;-68
2024/01/16 09:09:59;;;;;;;0.95;0.85;;;1.30;99.90;;;;;;5036222;28;20414;-70
2024/01/16 09:12:26;;;;;;;1.23;0.85;;;1.40;99.90;;;;;;5036496;28;20029;-70
2024/01/16 09:14:52;;;;;;;0.10;0.10;;;1.40;99.90;;;;;;5049992;28;20033;-71
2024/01/16 09:17:17;;;;;;;1.35;1.27;;;1.50;99.90;;;;;;5047095;28;20031;-71
2024/01/16 09:19:43;;;;;;;3.17;1.13;;;1.50;99.90;;;;;;5039359;28;20401;-67
2024/01/16 09:22:09;;;;;;;7.60;0.88;;;1.60;99.90;;;;;;5036376;28;20076;-71
2024/01/16 09:24:35;;;;;;;0.65;0.65;;;1.60;99.90;;;;;;5035703;28;20391;-69
2024/01/16 09:27:01;;;;;;;0.52;0.52;;;1.50;99.90;;;;;;5049086;28;20102;-74
2024/01/16 09:29:27;;;;;;;0.68;0.68;;;1.60;99.90;;;;;;5044365;28;20481;-70
2024/01/16 09:31:53;;;;;;;0.60;0.60;;;1.50;99.90;;;;;;5038068;28;20027;-67
2024/01/16 09:34:18;;;;;;;0.40;0.40;;;1.50;99.90;;;;;;5036414;28;20601;-71
2024/01/16 09:36:44;;;;;;;0.88;0.68;;;1.60;99.90;;;;;;5021500;28;20082;-70
2024/01/16 09:39:16;;;;;;;3.15;1.35;;;1.80;99.90;;;;;;5048432;28;20036;-70
2024/01/16 09:41:42;;;;;;;;;;;1.70;99.90;;;;;;5041082;28;20018;-67
2024/01/16 09:44:08;;;;;;;0.08;0.05;;;1.80;99.90;;;;;;5035813;28;20259;-71
2024/01/16 09:46:37;;;;;;;2.30;1.40;;;1.90;99.90;;;;;;5036495;28;20702;-71
2024/01/16 09:49:03;;;;;;;0.40;0.40;;;1.80;99.90;;;;;;5048904;28;20033;-70
2024/01/16 09:51:29;;;;;;;1.27;1.17;;;2.00;99.90;;;;;;5034980;28;20018;-67
2024/01/16 09:53:55;;;;;;;3.58;0.73;;;2.40;99.90;;;;;;5039093;28;20029;-69
2024/01/16 09:56:25;;;;;;;0.40;0.35;;;2.40;99.90;;;;;;5037372;28;20486;-69
2024/01/16 09:58:59;;;;;;;0.40;0.32;;;2.60;99.90;;;;;;5021902;28;20032;-69
2024/01/16 10:01:28;;;;;;;3.00;0.60;;;2.70;99.90;;;;;;5048757;28;20542;-70
2024/01/16 10:03:54;;;;;;;0.47;0.47;;;2.90;99.90;;;;;;5044434;28;20037;-71
2024/01/16 10:06:22;;;;;;;13.32;4.07;;;3.00;99.90;;;;;;5042713;28;20140;-69
2024/01/16 10:08:48;;;;;;;1.05;0.98;;;3.10;99.90;;;;;;5038067;28;20053;-70
2024/01/16 10:11:14;;;;;;;1.30;0.68;;;3.00;99.90;;;;;;5022453;28;20034;-69
2024/01/16 10:13:41;;;;;;;1.33;1.05;;;3.20;99.90;;;;;;5043681;28;20037;-70
2024/01/16 10:16:07;;;;;;;0.13;0.13;;;3.10;99.90;;;;;;5039087;28;20026;-69
2024/01/16 10:18:37;;;;;;;3.25;1.63;;;2.60;99.90;;;;;;5030940;28;20025;-69
2024/01/16 10:21:04;;;;;;;0.40;0.40;;;2.60;99.90;;;;;;5031305;28;20116;-70
2024/01/16 10:23:32;;;;;;;2.83;1.33;;;2.50;99.90;;;;;;5032594;28;20083;-69
2024/01/16 10:26:11;;;;;;;2.58;1.60;;;2.40;99.90;;;;;;5031482;28;20112;-70
2024/01/16 10:28:42;;;;;;;0.40;0.40;;;2.40;99.90;;;;;;5031847;28;20116;-69
2024/01/16 10:31:15;;;;;;;0.40;0.40;;;2.40;99.90;;;;;;5032313;28;20425;-71
2024/01/16 10:33:41;;;;;;;0.13;0.13;;;2.40;99.90;;;;;;5032570;28;20029;-71
2024/01/16 10:36:13;;;;;;;0.70;0.57;;;2.50;99.90;;;;;;5032293;28;20485;-71
2024/01/16 10:38:43;;;;;;;0.13;0.13;;;2.40;99.90;;;;;;5032009;28;20554;-69
2024/01/16 10:41:17;;;;;;;1.65;0.65;;;2.50;99.90;;;;;;5031856;28;20378;-70
2024/01/16 10:43:49;;;;;;;6.50;1.67;;;2.60;99.90;;;;;;5029656;28;20474;-69
2024/01/16 10:46:18;;;;;;;1.65;0.70;;;2.40;99.90;;;;;;5031668;28;20029;-70
2024/01/16 10:48:59;;;;;;;2.25;1.45;;;2.40;99.90;;;;;;5045002;28;20037;-70
2024/01/16 10:51:27;;;;;;;1.10;1.08;;;2.40;99.90;;;;;;5039898;28;20057;-69
2024/01/16 10:53:59;;;;;;;0.13;0.13;;;2.50;99.90;;;;;;5034410;28;20021;-69
2024/01/16 10:56:27;;;;;;;;;;;2.70;99.90;;;;;;5036517;28;20032;-69
2024/01/16 10:59:12;;;;;;;0.30;0.30;;;3.00;99.90;;;;;;5024134;28;20369;-70
2024/01/16 11:01:42;;;;;;;0.80;0.52;;;3.20;99.90;;;;;;5045747;28;20056;-69
2024/01/16 11:04:09;;;;;;;2.55;0.70;;;3.20;99.90;;;;;;5045637;28;20080;-70
2024/01/16 11:06:36;;;;;;;0.10;0.10;;;3.60;99.90;;;;;;5045261;28;20382;-70
2024/01/16 11:09:02;;;;;;;3.53;1.08;;;4.10;99.90;;;;;;5042075;28;20052;-69
2024/01/16 11:11:28;;;;;;;0.60;0.30;;;4.30;99.90;;;;;;5035459;28;20025;-70
2024/01/16 11:13:55;;;;;;;14.88;1.42;;;4.20;99.90;;;;;;5047428;28;20061;-70
2024/01/16 11:16:22;;;;;;;0.43;0.43;;;4.00;99.90;;;;;;5041180;28;20018;-69
2024/01/16 11:18:48;;;;;;;0.45;0.45;;;4.10;99.90;;;;;;5045729;28;20036;-70
2024/01/16 11:21:16;;;;;;;0.57;0.47;;;4.50;99.90;;;;;;5037711;28;20021;-69
2024/01/16 11:23:42;;;;;;;2.28;0.77;;;4.70;99.90;;;;;;5034195;28;20033;-69
2024/01/16 11:26:27;;;;;;;1.13;1.02;;;5.40;99.90;;;;;;5032965;28;20042;-69
2024/01/16 11:28:56;;;;;;;0.30;0.30;;;5.20;99.90;;;;;;5028881;28;20072;-70
2024/01/16 11:31:35;;;;;;;1.17;0.82;;;5.30;99.90;;;;;;5038563;28;20099;-69
2024/01/16 11:34:02;;;;;;;0.20;0.20;;;5.10;99.90;;;;;;5030513;28;20373;-69
2024/01/16 11:36:57;;;;;;;0.20;0.20;;;5.40;99.90;;;;;;5025856;28;20537;-69
2024/01/16 11:39:25;;;;;;;2.22;1.17;;;5.30;99.90;;;;;;5039516;28;20065;-70
2024/01/16 11:42:02;;;;;;;3.30;2.85;;;5.90;99.90;;;;;;5035331;28;20060;-69
2024/01/16 11:44:50;;;;;;;2.95;0.68;;;6.00;99.90;;;;;;5038215;28;20025;-70
2024/01/16 11:47:23;;;;;;;1.17;0.35;;;5.50;99.90;;;;;;5035003;28;20041;-69
2024/01/16 11:50:26;;;;;;;0.32;0.32;;;5.90;99.90;;;;;;5033788;28;20029;-70
2024/01/16 11:52:52;;;;;;;0.60;0.60;;;6.00;99.90;;;;;;5031932;28;20037;-69
2024/01/16 11:55:30;;;;;;;0.75;0.40;;;5.80;99.90;;;;;;5035538;28;20048;-69
2024/01/16 11:58:15;;;;;;;2.83;0.95;;;5.00;99.90;;;;;;5034562;28;20060;-70
2024/01/16 12:00:44;;;;;;;0.50;0.40;;;4.70;99.90;;;;;;5042017;28;20017;-72
2024/01/16 12:03:13;;;;;;;4.55;1.85;;;5.10;99.90;;;;;;5040523;28;20025;-69
2024/01/16 12:05:39;;;;;;;1.30;1.10;;;5.00;99.90;;;;;;5044594;28;20477;-71
2024/01/16 12:08:06;;;;;;;1.55;0.45;;;5.30;99.90;;;;;;5039172;28;20084;-70
2024/01/16 12:10:32;;;;;;;4.57;1.33;;;4.50;99.90;;;;;;5038168;28;20030;-70
2024/01/16 12:13:02;;;;;;;2.67;0.55;;;4.70;99.90;;;;;;5038292;28;20091;-70
2024/01/16 12:15:28;;;;;;;0.20;0.20;;;4.40;99.90;;;;;;5049834;28;20075;-70
2024/01/16 12:18:01;;;;;;;2.40;1.35;;;4.40;99.90;;;;;;5042305;28;20029;-71
2024/01/16 12:20:31;;;;;;;1.30;0.65;;;4.30;99.90;;;;;;5039200;28;20025;-70
2024/01/16 12:23:03;;;;;;;0.68;0.50;;;4.20;99.90;;;;;;5034680;28;20040;-71
2024/01/16 12:25:32;;;;;;;0.77;0.50;;;4.60;99.90;;;;;;5042592;28;20039;-70
2024/01/16 12:27:58;;;;;;;1.00;0.40;;;4.30;99.90;;;;;;5044316;28;20026;-70
2024/01/16 12:30:35;;;;;;;0.10;0.10;;;4.40;99.90;;;;;;5040287;28;20037;-70
2024/01/16 12:33:08;;;;;;;0.20;0.20;;;4.90;99.90;;;;;;5036953;28;20025;-71
2024/01/16 12:35:41;;;;;;;2.38;1.17;;;4.80;99.90;;;;;;5033845;28;20442;-71
2024/01/16 12:38:09;;;;;;;1.23;0.30;;;4.90;99.90;;;;;;5033496;28;20389;-70
2024/01/16 12:40:39;;;;;;;0.25;0.25;;;5.20;99.90;;;;;;5034087;28;20473;-70
2024/01/16 12:43:06;;;;;;;0.52;0.52;;;5.90;99.90;;;;;;5033771;28;20061;-69
2024/01/16 12:45:33;;;;;;;0.52;0.43;;;6.20;99.90;;;;;;5033938;28;20025;-71
2024/01/16 12:48:00;;;;;;;29.70;2.47;;;5.60;99.90;;;;;;5032300;28;20072;-70
2024/01/16 12:50:29;;;;;;;1.10;0.73;;;5.60;99.90;;;;;;5033944;28;20466;-70
2024/01/16 12:53:05;;;;;;;1.00;0.88;;;5.00;99.90;;;;;;5033596;28;20470;-71
2024/01/16 12:55:33;;;;;;;0.15;0.15;;;5.30;99.90;;;;;;5032603;28;20120;-70
2024/01/16 12:58:34;;;;;;;0.20;0.20;;;6.40;99.90;;;;;;5033867;28;20039;-69
2024/01/16 13:01:26;;;;;;;0.03;0.03;;;7.10;99.90;;;;;;5021695;28;20076;-71